EGNM/LBA METAR and TAF weather

Enter ICAO airport designator
Station Type Date Time Source
EGNM METAR 2021/04/12 15:50 UTC NOAA

EGNM 121550Z 31007KT 280V350 CAVOK 08/M08 Q1028


Station Type Date Time Source
EGNM Decoded METAR 2021/04/12 15:50 UTC NOAA

Leeds And Bradford, United Kingdom (EGNM) 53-52N 001-39W
Apr 12, 2021 - 11:50 AM EDT / 2021.04.12 1550 UTC
Wind: from the NW (310 degrees) at 8 MPH (7 KT) (direction variable):0
Visibility: greater than 7 mile(s):0
Temperature: 46 F (8 C)
Dew Point: 17 F (-8 C)
Relative Humidity: 31%
Pressure (altimeter): 30.36 in. Hg (1028 hPa)
ob: EGNM 121550Z 31007KT 280V350 CAVOK 08/M08 Q1028
cycle: 16

Station Type Date Time Source
EGNM TAF 2021/04/12 12:39 UTC NOAA

TAF TAF EGNM 121733Z 1212/1312 CNL

Example: see airport list